Time;durP1;ratioP1;P1;durP2;ratioP2;P2;SDS_P1;SDS_P2;PMS_P1;PMS_P2;Temp;Humidity;BMP_temperature;BMP_pressure;BME280_temperature;BME280_humidity;BME280_pressure;Samples;Min_cycle;Max_cycle;Signal;HPM_P1;HPM_P2
2022/10/29 00:00:43;;;;;;;13.75;2.63;;;;;;;11.75;100.00;100403.16;4961078;29;20059;-95
2022/10/29 00:03:10;;;;;;;12.77;2.60;;;;;;;11.74;100.00;100402.31;4962209;29;20500;-95
2022/10/29 00:05:37;;;;;;;16.17;3.42;;;;;;;12.24;100.00;100466.41;4959227;29;20142;-94
2022/10/29 00:08:04;;;;;;;13.98;3.13;;;;;;;11.88;100.00;100408.66;4961045;29;20485;-95
2022/10/29 00:10:30;;;;;;;8.10;2.25;;;;;;;12.71;100.00;100556.91;4960800;29;20508;-95
2022/10/29 00:13:02;;;;;;;9.48;2.25;;;;;;;12.45;100.00;100531.94;4958855;29;20047;-95
2022/10/29 00:15:29;;;;;;;15.43;2.72;;;;;;;12.64;100.00;100558.13;4959087;29;20054;-95
2022/10/29 00:17:56;;;;;;;14.15;3.50;;;;;;;11.84;100.00;100413.19;4959779;29;20059;-95
2022/10/29 00:20:23;;;;;;;19.25;4.28;;;;;;;12.37;100.00;100549.81;4958671;29;20462;-95
2022/10/29 00:22:52;;;;;;;16.50;3.78;;;;;;;11.99;100.00;100487.75;4958219;29;20051;-95
2022/10/29 00:25:20;;;;;;;14.95;3.38;;;;;;;12.32;100.00;100522.03;4958740;29;20050;-95
2022/10/29 00:27:46;;;;;;;18.73;3.65;;;;;;;12.40;100.00;100534.78;4958946;29;20055;-95
2022/10/29 00:30:13;;;;;;;12.20;3.03;;;;;;;12.21;100.00;100502.47;4958110;29;20051;-95
2022/10/29 00:32:40;;;;;;;11.90;2.55;;;;;;;12.37;100.00;100515.69;4956826;28;20386;-94
2022/10/29 00:35:07;;;;;;;10.65;2.53;;;;;;;12.41;100.00;100512.88;4960864;29;20055;-95
2022/10/29 00:37:34;;;;;;;19.30;3.65;;;;;;;12.38;100.00;100541.88;4959538;29;20047;-94
2022/10/29 00:40:02;;;;;;;11.85;2.47;;;;;;;12.50;100.00;100543.03;4959826;29;20059;-95
2022/10/29 00:42:29;;;;;;;11.90;2.72;;;;;;;12.73;100.00;100569.06;4961734;29;20055;-94
2022/10/29 00:44:56;;;;;;;17.02;3.20;;;;;;;12.71;100.00;100565.66;4961923;29;20122;-95
2022/10/29 00:47:27;;;;;;;12.20;3.05;;;;;;;12.40;100.00;100521.66;4960452;29;20059;-93
2022/10/29 00:50:12;;;;;;;13.13;3.03;;;;;;;12.45;100.00;100514.41;4958946;29;20106;-94
2022/10/29 00:52:46;;;;;;;12.15;2.60;;;;;;;12.41;100.00;100523.38;4960768;29;20051;-94
2022/10/29 00:55:14;;;;;;;13.20;2.80;;;;;;;12.59;100.00;100558.38;4960562;29;20059;-94
2022/10/29 00:57:47;;;;;;;19.88;3.35;;;;;;;12.64;100.00;100556.38;4960620;29;20051;-94
2022/10/29 01:00:16;;;;;;;12.18;3.55;;;;;;;12.68;100.00;100562.34;4960611;29;20093;-94
2022/10/29 01:02:44;;;;;;;17.85;3.60;;;;;;;12.58;100.00;100550.56;4960551;29;20062;-94
2022/10/29 01:05:15;;;;;;;14.75;3.60;;;;;;;12.56;100.00;100534.88;4959735;29;20148;-94
2022/10/29 01:07:42;;;;;;;33.08;4.85;;;;;;;12.67;100.00;100550.94;4960366;29;20062;-94
2022/10/29 01:10:10;;;;;;;17.55;3.80;;;;;;;12.72;100.00;100551.56;4946631;29;20051;-94
2022/10/29 01:13:01;;;;;;;16.05;3.30;;;;;;;12.95;100.00;100572.41;4940936;29;20462;-95
2022/10/29 01:15:57;;;;;;;21.77;3.65;;;;;;;12.79;100.00;100561.81;4939322;29;20055;-94
2022/10/29 01:18:54;;;;;;;14.68;4.32;;;;;;;12.80;100.00;100574.88;4939545;29;20056;-94
2022/10/29 01:21:41;;;;;;;16.85;2.65;;;;;;;12.89;100.00;100577.03;4938980;29;20084;-94
2022/10/29 01:24:38;;;;;;;17.58;4.28;;;;;;;12.81;100.00;100583.59;4939304;29;20417;-94
2022/10/29 01:27:34;;;;;;;14.73;3.17;;;;;;;12.83;100.00;100577.31;4939584;29;20486;-94
2022/10/29 01:30:20;;;;;;;13.60;3.45;;;;;;;12.84;100.00;100589.53;4939619;29;20102;-93
2022/10/29 01:32:46;;;;;;;20.70;3.65;;;;;;;12.82;100.00;100587.91;4939261;29;20059;-95
2022/10/29 01:35:39;;;;;;;17.40;3.08;;;;;;;12.86;100.00;100592.09;4940769;29;20140;-94
2022/10/29 01:38:23;;;;;;;23.48;3.58;;;;;;;12.90;100.00;100599.72;4934095;29;20066;-94
2022/10/29 01:41:28;;;;;;;11.98;2.90;;;;;;;12.90;100.00;100606.78;4940158;29;20056;-94
2022/10/29 01:44:21;;;;;;;14.80;2.85;;;;;;;12.99;100.00;100608.09;4940450;29;20055;-94
2022/10/29 01:47:01;;;;;;;18.88;3.50;;;;;;;12.89;100.00;100591.91;4940575;29;20062;-94
2022/10/29 01:49:34;;;;;;;15.93;2.80;;;;;;;12.85;100.00;100588.59;4942453;29;20471;-94
2022/10/29 01:52:02;;;;;;;;;;;;;;;13.12;100.00;100627.59;4943250;29;20048;-94
2022/10/29 01:54:29;;;;;;;15.52;3.92;;;;;;;13.00;100.00;100588.78;4942064;29;19923;-94
2022/10/29 01:56:56;;;;;;;17.77;3.40;;;;;;;13.17;100.00;100611.59;4942314;29;20055;-94
2022/10/29 01:59:28;;;;;;;14.98;3.38;;;;;;;12.91;100.00;100590.09;4942102;29;20128;-94
2022/10/29 02:02:21;;;;;;;17.13;4.55;;;;;;;12.93;100.00;100580.34;4941499;29;20130;-93
2022/10/29 02:05:09;;;;;;;11.13;2.85;;;;;;;13.19;100.00;100605.34;4940095;29;20491;-94
2022/10/29 02:07:41;;;;;;;17.75;3.95;;;;;;;13.19;100.00;100607.09;4939010;29;20388;-94
2022/10/29 02:10:27;;;;;;;21.48;4.20;;;;;;;13.23;100.00;100613.91;4939283;29;20525;-94
2022/10/29 02:12:55;;;;;;;18.45;3.75;;;;;;;13.13;100.00;100573.25;4939298;29;20063;-94
2022/10/29 02:15:46;;;;;;;21.10;3.33;;;;;;;13.32;100.00;100607.38;4939187;29;20086;-94
2022/10/29 02:18:14;;;;;;;16.40;3.50;;;;;;;12.96;100.00;100589.84;4939069;29;20079;-94
2022/10/29 02:20:43;;;;;;;15.82;4.25;;;;;;;13.05;100.00;100574.47;4956445;29;20140;-94
2022/10/29 02:23:09;;;;;;;15.30;4.07;;;;;;;13.16;100.00;100602.00;4957909;29;20051;-93
2022/10/29 02:25:36;;;;;;;19.90;4.40;;;;;;;13.16;100.00;100609.91;4958068;29;20051;-95
2022/10/29 02:28:03;;;;;;;19.70;3.35;;;;;;;12.95;100.00;100581.13;4960149;29;20063;-95
2022/10/29 02:30:30;;;;;;;18.80;4.10;;;;;;;12.95;100.00;100567.97;4962033;29;20130;-95
2022/10/29 02:32:57;;;;;;;12.40;2.55;;;;;;;13.04;100.00;100575.41;4962407;29;20083;-96
2022/10/29 02:35:25;;;;;;;16.42;3.97;;;;;;;12.91;100.00;100567.28;4960078;29;20548;-96
2022/10/29 02:37:51;;;;;;;12.35;2.58;;;;;;;13.09;100.00;100591.78;4960471;29;20055;-96
2022/10/29 02:40:18;;;;;;;14.93;3.85;;;;;;;13.15;100.00;100600.28;4961028;29;20055;-95
2022/10/29 02:42:45;;;;;;;13.23;3.38;;;;;;;12.81;100.00;100573.91;4961042;29;20068;-94
2022/10/29 02:45:12;;;;;;;16.00;3.40;;;;;;;12.89;100.00;100571.78;4960368;29;20055;-95
2022/10/29 02:47:38;;;;;;;14.30;3.20;;;;;;;12.85;100.00;100572.81;4958753;29;20052;-95
2022/10/29 02:50:06;;;;;;;16.88;2.92;;;;;;;12.75;100.00;100579.50;4958912;29;20051;-94
2022/10/29 02:52:33;;;;;;;22.30;4.47;;;;;;;12.89;100.00;100611.19;4957373;29;20452;-95
2022/10/29 02:54:59;;;;;;;12.05;2.63;;;;;;;12.91;100.00;100605.88;4958429;29;20544;-95
2022/10/29 02:57:26;;;;;;;15.80;3.75;;;;;;;12.88;100.00;100617.34;4957290;28;20095;-95
2022/10/29 02:59:53;;;;;;;18.90;3.38;;;;;;;12.72;100.00;100582.25;4957245;29;20165;-94
2022/10/29 03:02:19;;;;;;;15.52;2.80;;;;;;;12.81;100.00;100567.81;4956192;29;20126;-94
2022/10/29 03:04:46;;;;;;;16.35;3.38;;;;;;;12.75;100.00;100579.50;4956085;29;20113;-95
2022/10/29 03:07:13;;;;;;;16.38;3.55;;;;;;;12.63;100.00;100559.91;4955876;29;20480;-94
2022/10/29 03:09:40;;;;;;;16.15;3.72;;;;;;;12.88;100.00;100587.63;4955987;29;20070;-94
2022/10/29 03:12:07;;;;;;;16.80;3.45;;;;;;;12.88;100.00;100570.06;4955879;29;20115;-95
2022/10/29 03:14:33;;;;;;;17.70;4.65;;;;;;;12.79;100.00;100564.44;4956059;29;20051;-94
2022/10/29 03:17:00;;;;;;;17.13;4.75;;;;;;;12.91;100.00;100582.22;4956097;29;20055;-95
2022/10/29 03:19:27;;;;;;;17.90;4.45;;;;;;;12.87;100.00;100578.00;4947644;29;20055;-95
2022/10/29 03:21:54;;;;;;;14.30;3.05;;;;;;;12.65;100.00;100551.97;4936597;29;20055;-95
2022/10/29 03:24:20;;;;;;;18.08;3.85;;;;;;;12.65;100.00;100565.94;4936553;29;20052;-94
2022/10/29 03:26:47;;;;;;;17.45;3.17;;;;;;;12.57;100.00;100543.59;4945812;29;20438;-94
2022/10/29 03:29:14;;;;;;;17.63;3.20;;;;;;;12.80;100.00;100589.75;4943290;29;20055;-94
2022/10/29 03:31:41;;;;;;;17.98;3.42;;;;;;;12.61;100.00;100561.78;4957342;29;20470;-94
2022/10/29 03:34:08;;;;;;;21.70;3.78;;;;;;;12.63;100.00;100569.59;4959041;29;20059;-94
2022/10/29 03:36:35;;;;;;;14.75;3.03;;;;;;;12.73;100.00;100599.75;4957346;29;20062;-94
2022/10/29 03:39:01;;;;;;;20.55;3.72;;;;;;;12.61;100.00;100584.56;4959081;29;20478;-94
2022/10/29 03:41:28;;;;;;;17.98;4.10;;;;;;;12.76;100.00;100598.72;4957922;29;20051;-95
2022/10/29 03:43:55;;;;;;;23.40;3.72;;;;;;;12.45;100.00;100580.06;4957749;29;20054;-95
2022/10/29 03:46:21;;;;;;;10.90;2.65;;;;;;;12.37;100.00;100571.69;4956592;29;20070;-95
2022/10/29 03:48:49;;;;;;;18.85;4.45;;;;;;;12.58;100.00;100611.81;4954594;29;20048;-94
2022/10/29 03:51:16;;;;;;;15.35;2.83;;;;;;;12.35;100.00;100582.25;4939660;29;20070;-94
2022/10/29 03:53:42;;;;;;;16.95;3.75;;;;;;;12.29;100.00;100579.94;4937694;29;20106;-94
2022/10/29 03:56:10;;;;;;;13.80;3.15;;;;;;;12.48;100.00;100611.41;4938981;29;20110;-94
2022/10/29 03:58:36;;;;;;;16.23;3.25;;;;;;;12.03;100.00;100556.69;4939207;29;20056;-94
2022/10/29 04:01:08;;;;;;;14.60;3.10;;;;;;;12.36;100.00;100627.75;4956849;29;20059;-94
2022/10/29 04:03:37;;;;;;;13.43;3.25;;;;;;;12.14;100.00;100602.47;4958121;29;20063;-94
2022/10/29 04:06:12;;;;;;;10.40;2.33;;;;;;;12.33;100.00;100636.59;4958605;29;20118;-95
2022/10/29 04:08:39;;;;;;;14.05;3.15;;;;;;;12.27;100.00;100626.41;4957854;28;20051;-94
2022/10/29 04:11:09;;;;;;;10.68;2.40;;;;;;;12.14;100.00;100601.63;4957500;29;20513;-95
2022/10/29 04:13:36;;;;;;;18.27;3.03;;;;;;;11.87;100.00;100588.81;4956596;29;20051;-94
2022/10/29 04:16:03;;;;;;;18.35;3.25;;;;;;;12.03;100.00;100617.88;4956198;29;20409;-94
2022/10/29 04:18:30;;;;;;;18.35;3.53;;;;;;;12.04;100.00;100611.72;4955483;29;20529;-95
2022/10/29 04:21:01;;;;;;;33.58;5.22;;;;;;;12.25;100.00;100630.00;4937107;29;20062;-94
2022/10/29 04:23:48;;;;;;;18.85;4.57;;;;;;;12.06;100.00;100596.75;4936183;29;20051;-94
2022/10/29 04:26:35;;;;;;;18.52;3.90;;;;;;;12.17;100.00;100619.88;4936830;29;20130;-94
2022/10/29 04:29:22;;;;;;;31.80;4.32;;;;;;;12.36;100.00;100648.75;4935987;29;20055;-95
2022/10/29 04:31:49;;;;;;;20.45;4.13;;;;;;;12.15;100.00;100614.69;4936174;29;20044;-94
2022/10/29 04:34:15;;;;;;;13.82;2.88;;;;;;;12.16;100.00;100612.91;4937387;29;20055;-94
2022/10/29 04:36:42;;;;;;;11.20;3.10;;;;;;;12.08;100.00;100602.78;4937368;29;20107;-95
2022/10/29 04:39:09;;;;;;;13.65;3.50;;;;;;;12.34;100.00;100650.56;4936967;29;20120;-94
2022/10/29 04:41:35;;;;;;;18.98;3.20;;;;;;;12.24;100.00;100608.16;4935877;29;20098;-94
2022/10/29 04:44:02;;;;;;;14.25;3.08;;;;;;;12.30;100.00;100625.41;4935698;29;20075;-94
2022/10/29 04:46:29;;;;;;;15.93;3.08;;;;;;;12.27;100.00;100628.16;4935293;29;20107;-94
2022/10/29 04:49:04;;;;;;;16.17;2.83;;;;;;;12.19;100.00;100630.31;4937545;29;20055;-95
2022/10/29 04:51:30;;;;;;;9.73;2.40;;;;;;;12.41;100.00;100657.28;4936263;29;20051;-94
2022/10/29 04:53:57;;;;;;;13.13;2.60;;;;;;;12.34;100.00;100655.81;4936290;29;20059;-95
2022/10/29 04:56:24;;;;;;;12.40;2.97;;;;;;;12.18;100.00;100639.09;4936652;29;20063;-95
2022/10/29 04:58:51;;;;;;;18.50;3.42;;;;;;;12.14;100.00;100667.25;4939332;29;20485;-95
2022/10/29 05:01:18;;;;;;;17.42;3.38;;;;;;;11.98;100.00;100653.13;4954891;29;20055;-95
2022/10/29 05:03:45;;;;;;;12.30;2.72;;;;;;;11.98;100.00;100661.00;4957740;29;20058;-95
2022/10/29 05:06:12;;;;;;;17.17;2.78;;;;;;;12.20;100.00;100682.72;4959355;29;20536;-96
2022/10/29 05:08:39;;;;;;;13.40;2.97;;;;;;;12.08;100.00;100665.75;4960548;29;20470;-95
2022/10/29 05:11:06;;;;;;;15.52;2.88;;;;;;;12.07;100.00;100658.78;4959629;29;20059;-95
2022/10/29 05:13:34;;;;;;;12.60;2.65;;;;;;;12.25;100.00;100685.13;4957077;29;20051;-95
2022/10/29 05:16:01;;;;;;;11.02;2.72;;;;;;;12.06;100.00;100653.63;4957680;29;20111;-94
2022/10/29 05:18:28;;;;;;;12.98;2.88;;;;;;;11.95;100.00;100647.09;4956024;29;20055;-94
2022/10/29 05:20:55;;;;;;;17.20;3.22;;;;;;;12.06;100.00;100662.34;4957069;28;20554;-94
2022/10/29 05:23:22;;;;;;;14.27;3.22;;;;;;;11.97;100.00;100654.91;4959046;29;20047;-93
2022/10/29 05:25:50;;;;;;;16.92;3.20;;;;;;;12.13;100.00;100668.19;4941755;29;20501;-92
2022/10/29 05:28:20;;;;;;;25.85;4.03;;;;;;;12.20;100.00;100668.72;4956886;29;20062;-92
2022/10/29 05:30:49;;;;;;;13.82;3.28;;;;;;;12.12;100.00;100651.56;4956659;29;20047;-92
2022/10/29 05:33:18;;;;;;;14.75;3.55;;;;;;;12.03;100.00;100640.66;4981392;28;20374;-93
2022/10/29 05:35:46;;;;;;;15.20;2.83;;;;;;;12.15;100.00;100661.09;4958643;28;20055;-92
2022/10/29 05:38:13;;;;;;;11.32;2.45;;;;;;;11.88;100.00;100634.25;4953542;28;20114;-92
2022/10/29 05:40:43;;;;;;;14.70;3.10;;;;;;;11.96;100.00;100672.41;4963012;28;20051;-92
2022/10/29 05:43:15;;;;;;;10.95;2.72;;;;;;;11.98;100.00;100689.84;4942928;29;20050;-92
2022/10/29 05:45:43;;;;;;;17.15;4.13;;;;;;;12.06;100.00;100690.38;4956031;29;20497;-92
2022/10/29 05:48:10;;;;;;;14.90;3.42;;;;;;;11.99;100.00;100681.03;4956125;28;20460;-91
2022/10/29 05:50:42;;;;;;;21.52;3.45;;;;;;;12.06;100.00;100685.13;4954386;29;20137;-92
2022/10/29 05:53:13;;;;;;;18.00;2.75;;;;;;;12.02;100.00;100687.00;4955086;29;20530;-93
2022/10/29 05:55:41;;;;;;;19.55;3.45;;;;;;;11.99;100.00;100688.91;4944212;29;20043;-92
2022/10/29 05:58:11;;;;;;;21.90;3.60;;;;;;;12.04;100.00;100685.19;4956271;29;20051;-93
2022/10/29 06:00:40;;;;;;;14.68;3.38;;;;;;;12.03;100.00;100680.00;4967011;28;20458;-93
2022/10/29 06:03:19;;;;;;;16.48;3.38;;;;;;;12.07;100.00;100678.94;4955628;29;20048;-93
2022/10/29 06:05:48;;;;;;;14.63;2.92;;;;;;;11.82;100.00;100634.56;4939725;29;20051;-93
2022/10/29 06:08:16;;;;;;;14.25;2.97;;;;;;;12.03;100.00;100665.09;4938661;29;20450;-93
2022/10/29 06:10:42;;;;;;;24.63;3.42;;;;;;;11.72;100.00;100650.69;4956451;29;20074;-93
2022/10/29 06:13:15;;;;;;;15.70;3.72;;;;;;;11.80;100.00;100673.13;4957916;29;20051;-93
2022/10/29 06:15:41;;;;;;;10.63;2.80;;;;;;;11.75;100.00;100662.81;4953316;29;20571;-93
2022/10/29 06:18:09;;;;;;;10.95;2.17;;;;;;;11.77;100.00;100660.97;4948731;29;20083;-93
2022/10/29 06:20:37;;;;;;;15.93;3.35;;;;;;;11.91;100.00;100682.25;4957099;28;20055;-93
2022/10/29 06:23:04;;;;;;;12.13;2.83;;;;;;;11.65;100.00;100643.16;4957528;29;20047;-93
2022/10/29 06:25:31;;;;;;;15.05;3.13;;;;;;;11.88;100.00;100679.75;4957433;29;20055;-93
2022/10/29 06:28:00;;;;;;;19.88;4.00;;;;;;;11.68;100.00;100653.50;4956262;29;20111;-94
2022/10/29 06:30:28;;;;;;;16.08;3.22;;;;;;;11.73;100.00;100649.75;4953978;28;20474;-93
2022/10/29 06:32:55;;;;;;;18.92;4.40;;;;;;;11.84;100.00;100664.19;4955974;29;20062;-93
2022/10/29 06:35:22;;;;;;;16.23;3.88;;;;;;;11.88;100.00;100665.75;4971534;28;20047;-94
2022/10/29 06:37:49;;;;;;;13.93;3.22;;;;;;;11.94;100.00;100673.41;4956049;29;20055;-94
2022/10/29 06:40:16;;;;;;;18.77;3.20;;;;;;;11.84;100.00;100669.44;4967751;29;20079;-92
2022/10/29 06:43:05;;;;;;;14.82;3.17;;;;;;;11.70;100.00;100652.50;4976914;29;20039;-93
2022/10/29 06:45:48;;;;;;;16.23;2.92;;;;;;;11.83;100.00;100671.22;4977085;29;20031;-92
2022/10/29 06:48:29;;;;;;;17.40;3.35;;;;;;;11.72;100.00;100647.22;4977662;29;20043;-93
2022/10/29 06:51:11;;;;;;;10.90;2.20;;;;;;;11.69;100.00;100658.69;4977694;29;20079;-90
2022/10/29 06:53:53;;;;;;;9.95;2.83;;;;;;;11.86;100.00;100691.19;4968527;29;20047;-90
2022/10/29 06:56:34;;;;;;;10.30;3.03;;;;;;;11.85;100.00;100687.72;4970526;29;20101;-90
2022/10/29 06:59:15;;;;;;;11.32;2.83;;;;;;;11.78;100.00;100694.16;4960509;29;20031;-91
2022/10/29 07:01:56;;;;;;;13.77;2.53;;;;;;;11.76;100.00;100701.25;4974130;29;20079;-91
2022/10/29 07:04:37;;;;;;;7.43;2.00;;;;;;;11.74;100.00;100708.34;4975393;29;20054;-91
2022/10/29 07:07:18;;;;;;;18.50;2.85;;;;;;;11.70;100.00;100706.75;4961873;29;20039;-92
2022/10/29 07:09:59;;;;;;;15.45;2.88;;;;;;;11.61;100.00;100705.38;4960521;29;20098;-91
2022/10/29 07:12:41;;;;;;;18.08;2.95;;;;;;;11.57;100.00;100673.19;4974645;29;20057;-91
2022/10/29 07:15:23;;;;;;;11.73;3.35;;;;;;;11.53;100.00;100671.63;4983794;28;20040;-90
2022/10/29 07:18:05;;;;;;;10.68;2.13;;;;;;;11.65;100.00;100692.97;4973328;28;20055;-91
2022/10/29 07:20:46;;;;;;;16.13;2.73;;;;;;;11.67;100.00;100706.88;4972915;29;20051;-90
2022/10/29 07:23:27;;;;;;;12.50;3.03;;;;;;;11.57;100.00;100709.91;4958718;28;20130;-90
2022/10/29 07:26:07;;;;;;;16.83;2.97;;;;;;;11.52;100.00;100687.41;4968993;29;20113;-88
2022/10/29 07:28:48;;;;;;;12.32;2.20;;;;;;;11.61;100.00;100701.91;4962461;29;20074;-89
2022/10/29 07:31:30;;;;;;;14.40;2.55;;;;;;;11.68;100.00;100709.44;4965134;29;20059;-88
2022/10/29 07:34:11;;;;;;;7.88;2.00;;;;;;;11.56;100.00;100684.59;4973441;28;20047;-91
2022/10/29 07:36:53;;;;;;;14.60;2.72;;;;;;;11.64;100.00;100701.78;4973992;29;20031;-93
2022/10/29 07:39:34;;;;;;;9.52;2.45;;;;;;;11.54;100.00;100669.84;4968265;29;20062;-89
2022/10/29 07:42:15;;;;;;;12.30;2.72;;;;;;;11.65;100.00;100685.09;4970202;28;20050;-91
2022/10/29 07:44:58;;;;;;;9.45;2.45;;;;;;;11.84;100.00;100714.03;4971939;28;20046;-93
2022/10/29 07:47:41;;;;;;;10.27;2.35;;;;;;;11.83;100.00;100717.56;4964436;28;20119;-94
2022/10/29 07:50:23;;;;;;;13.13;2.83;;;;;;;11.83;100.00;100709.69;4975666;29;20078;-93
2022/10/29 07:53:05;;;;;;;10.98;3.03;;;;;;;11.76;100.00;100707.34;4975735;29;20038;-93
2022/10/29 07:55:54;;;;;;;14.93;3.20;;;;;;;11.42;100.00;100672.97;4975728;29;20035;-93
2022/10/29 07:58:35;;;;;;;8.02;2.60;;;;;;;11.82;100.00;100726.38;4945528;29;20027;-93
2022/10/29 08:01:17;;;;;;;10.15;2.78;;;;;;;11.88;100.00;100728.72;4971121;29;20062;-91
2022/10/29 08:03:53;;;;;;;11.40;2.50;;;;;;;11.92;100.00;100746.09;4962674;29;20049;-95
2022/10/29 08:14:55;;;;;;;11.23;2.63;;;;;;;12.71;100.00;100749.53;5084002;23;20046;-96
2022/10/29 09:00:54;;;;;;;10.57;2.60;;;;;;;12.54;100.00;100705.66;5848609;23;20071;-91
2022/10/29 09:12:05;;;;;;;15.38;2.80;;;;;;;12.42;100.00;100684.38;4903929;29;20073;-96
2022/10/29 09:39:13;;;;;;;13.73;3.05;;;;;;;12.79;100.00;100665.09;5135511;23;20043;-93
2022/10/29 09:41:59;;;;;;;9.50;2.97;;;;;;;12.79;100.00;100640.63;4965754;29;20047;-95
2022/10/29 09:44:55;;;;;;;9.65;1.92;;;;;;;13.48;100.00;100726.63;4965944;29;20039;-95
2022/10/29 09:48:10;;;;;;;16.58;4.07;;;;;;;13.31;100.00;100695.91;4966214;29;20019;-95
2022/10/29 09:51:35;;;;;;;16.52;3.20;;;;;;;13.66;100.00;100761.69;4964504;29;20055;-94
2022/10/29 09:54:16;;;;;;;13.35;3.08;;;;;;;13.68;100.00;100755.41;4978830;29;20052;-93
2022/10/29 09:57:04;;;;;;;24.98;5.57;;;;;;;13.73;100.00;100749.09;4979688;29;20094;-94
2022/10/29 10:00:34;;;;;;;15.82;3.42;;;;;;;13.86;100.00;100769.44;4963869;29;20031;-93
2022/10/29 10:03:52;;;;;;;15.93;4.60;;;;;;;14.02;100.00;100763.38;4979999;28;20091;-93
2022/10/29 10:07:04;;;;;;;18.30;3.90;;;;;;;14.14;100.00;100768.00;4951957;29;20047;-96
2022/10/29 10:10:01;;;;;;;20.52;4.03;;;;;;;14.33;100.00;100767.06;4979498;28;20039;-95
2022/10/29 10:12:48;;;;;;;14.48;3.65;;;;;;;14.21;100.00;100766.75;4965273;29;20106;-94
2022/10/29 10:15:37;;;;;;;18.45;3.38;;;;;;;14.46;100.00;100773.38;4965758;28;20039;-95
2022/10/29 10:18:30;;;;;;;14.25;4.30;;;;;;;14.24;100.00;100724.47;4965582;29;20035;-94
2022/10/29 10:21:24;;;;;;;17.15;3.53;;;;;;;14.39;100.00;100761.44;4978977;29;20059;-94
2022/10/29 10:24:30;;;;;;;15.07;3.53;;;;;;;14.79;100.00;100765.47;4951832;29;20047;-95
2022/10/29 10:27:16;;;;;;;20.92;4.18;;;;;;;14.92;100.00;100760.34;4979781;29;20043;-95
2022/10/29 10:30:04;;;;;;;23.02;4.65;;;;;;;14.86;100.00;100754.59;4979149;28;20087;-94
2022/10/29 10:32:45;;;;;;;19.48;4.53;;;;;;;14.49;100.00;100681.00;4979100;29;20035;-95
2022/10/29 10:35:35;;;;;;;12.77;3.55;;;;;;;14.39;100.00;100648.19;4979684;29;20031;-95
2022/10/29 10:38:28;;;;;;;12.30;3.00;;;;;;;15.19;100.00;100750.06;4952134;29;20050;-95
2022/10/29 10:41:17;;;;;;;15.40;3.65;;;;;;;14.84;100.00;100696.69;4937617;29;20023;-96
2022/10/29 10:44:03;;;;;;;16.08;4.45;;;;;;;14.93;100.00;100704.06;4965764;29;20061;-93
2022/10/29 10:46:51;;;;;;;16.70;4.03;;;;;;;14.73;100.00;100639.31;4951137;29;20051;-94
2022/10/29 10:49:37;;;;;;;15.65;3.50;;;;;;;14.94;100.00;100660.97;4936931;29;20413;-94
2022/10/29 10:52:29;;;;;;;26.38;4.85;;;;;;;14.91;100.00;100649.72;4964231;29;20043;-95
2022/10/29 10:55:31;;;;;;;15.63;3.42;;;;;;;14.86;100.00;100610.47;4950838;29;20051;-94
2022/10/29 11:03:43;;;;;;;9.52;3.03;;;;;;;15.59;100.00;100661.63;5139107;23;20066;-95
2022/10/29 11:06:41;;;;;;;14.90;3.60;;;;;;;15.75;100.00;100694.94;4992783;28;20027;-96
2022/10/29 11:09:42;;;;;;;14.32;3.10;;;;;;;15.86;100.00;100730.41;4978767;28;20042;-96
2022/10/29 11:12:46;;;;;;;13.73;2.42;;;;;;;15.26;100.00;100615.19;4977636;28;20074;-94
2022/10/29 11:15:39;;;;;;;16.38;4.18;;;;;;;15.81;100.00;100706.06;4991528;28;20070;-95
2022/10/29 11:18:37;;;;;;;13.32;3.10;;;;;;;15.83;100.00;100707.69;4977452;28;20067;-95
2022/10/29 11:21:40;;;;;;;14.27;3.63;;;;;;;15.87;100.00;100716.28;4979516;28;20051;-96
2022/10/29 11:24:48;;;;;;;14.93;3.22;;;;;;;15.66;100.00;100686.69;4990398;28;20058;-95
2022/10/29 11:28:14;;;;;;;13.82;3.00;;;;;;;15.13;100.00;100583.41;4989534;28;20154;-93
2022/10/29 11:31:06;;;;;;;13.82;3.17;;;;;;;15.26;100.00;100571.19;4972555;29;20054;-93
2022/10/29 11:34:22;;;;;;;15.45;3.80;;;;;;;16.04;100.00;100702.91;4976387;28;20051;-93
2022/10/29 11:37:22;;;;;;;11.25;2.70;;;;;;;15.64;100.00;100628.72;4989338;28;20693;-93
2022/10/29 11:40:10;;;;;;;10.90;3.15;;;;;;;15.88;100.00;100702.13;4987390;28;20055;-90
2022/10/29 11:45:39;;;;;;;15.50;3.67;;;;;;;15.95;100.00;100695.53;5478424;23;20038;-95
2022/10/29 11:48:35;;;;;;;;;;;;;;;15.97;100.00;100700.72;5012241;28;20086;-94
2022/10/29 11:51:44;;;;;;;22.05;3.75;;;;;;;15.74;100.00;100677.41;5014360;28;19922;-95
2022/10/29 11:54:37;;;;;;;11.80;3.13;;;;;;;15.83;100.00;100661.94;4982727;28;20046;-95
2022/10/29 11:57:31;;;;;;;11.13;3.10;;;;;;;15.57;100.00;100611.56;4982098;28;20094;-95
2022/10/29 12:00:24;;;;;;;13.45;3.05;;;;;;;15.71;100.00;100661.72;4969784;28;20046;-94
2022/10/29 12:03:27;;;;;;;11.43;2.63;;;;;;;16.31;100.00;100691.59;4966895;28;20041;-91
2022/10/29 12:06:19;;;;;;;13.48;2.90;;;;;;;16.31;100.00;100689.78;4982549;28;20078;-96
2022/10/29 12:09:26;;;;;;;14.55;3.10;;;;;;;15.79;100.00;100573.34;4990065;28;20043;-93
2022/10/29 12:12:11;;;;;;;18.98;4.53;;;;;;;16.49;100.00;100653.41;4937946;28;20066;-93
2022/10/29 12:15:13;;;;;;;10.65;2.50;;;;;;;16.79;100.00;100655.03;4980622;28;20067;-91
2022/10/29 12:18:27;;;;;;;16.65;3.00;;;;;;;16.95;100.00;100676.06;4991362;28;20042;-92
2022/10/29 12:21:38;;;;;;;15.48;3.53;;;;;;;16.89;100.00;100669.41;4941438;28;20111;-95
2022/10/29 12:24:53;;;;;;;19.05;2.97;;;;;;;16.49;100.00;100642.00;4960394;29;20085;-93
2022/10/29 12:27:52;;;;;;;18.75;4.05;;;;;;;16.50;100.00;100678.03;4992643;28;20058;-93
2022/10/29 12:30:43;;;;;;;23.23;4.38;;;;;;;16.34;100.00;100641.16;4990628;28;20071;-91
2022/10/29 12:33:29;;;;;;;20.77;4.70;;;;;;;16.32;100.00;100680.94;4974611;28;20046;-95
2022/10/29 12:35:58;;;;;;;21.95;3.67;;;;;;;16.61;100.00;100672.06;4959178;28;20090;-93
2022/10/29 12:38:39;;;;;;;18.98;3.45;;;;;;;16.56;100.00;100676.84;4976928;28;20047;-95
2022/10/29 12:41:16;;;;;;;17.17;3.83;;;;;;;16.59;100.00;100669.56;4948626;28;20058;-90
2022/10/29 12:44:09;;;;;;;17.88;3.67;;;;;;;16.28;100.00;100673.28;4968526;28;20043;-91
2022/10/29 12:46:56;;;;;;;17.02;3.22;;;;;;;16.07;100.00;100688.66;4964520;28;20047;-93
2022/10/29 12:49:51;;;;;;;16.83;3.45;;;;;;;16.19;100.00;100679.97;4957960;28;20047;-93
2022/10/29 12:52:51;;;;;;;17.05;3.63;;;;;;;16.03;100.00;100680.06;4961757;28;20051;-93
2022/10/29 12:55:19;;;;;;;19.13;3.38;;;;;;;16.00;100.00;100682.06;4958377;29;20055;-92
2022/10/29 12:57:45;;;;;;;19.70;3.95;;;;;;;15.85;100.00;100644.25;4973577;28;20055;-93
2022/10/29 13:00:30;;;;;;;18.38;4.25;;;;;;;15.78;100.00;100659.59;4969289;28;20055;-94
2022/10/29 13:02:57;;;;;;;15.38;2.97;;;;;;;15.57;100.00;100632.69;4961630;28;20362;-93
2022/10/29 13:05:54;;;;;;;20.08;3.67;;;;;;;15.79;100.00;100663.91;4961554;28;20540;-94
2022/10/29 13:08:31;;;;;;;19.92;4.32;;;;;;;15.28;100.00;100610.66;4949945;28;20058;-93
2022/10/29 13:10:58;;;;;;;20.63;4.85;;;;;;;15.19;100.00;100644.56;4964752;28;20093;-93
2022/10/29 13:13:37;;;;;;;16.20;4.22;;;;;;;15.49;100.00;100663.94;4978314;28;20069;-93
2022/10/29 13:16:13;;;;;;;15.68;4.32;;;;;;;15.29;100.00;100630.84;4976440;28;20063;-87
2022/10/29 13:18:47;;;;;;;21.85;4.63;;;;;;;15.28;100.00;100647.59;4977408;28;20357;-93
2022/10/29 13:21:56;;;;;;;18.90;4.35;;;;;;;15.26;100.00;100668.78;4961745;28;20055;-93
2022/10/29 13:24:25;;;;;;;18.95;4.20;;;;;;;15.19;100.00;100655.13;4979388;28;20042;-90
2022/10/29 13:26:56;;;;;;;18.73;3.90;;;;;;;15.15;100.00;100666.75;4972623;29;20051;-89
2022/10/29 13:29:39;;;;;;;17.50;4.55;;;;;;;15.29;100.00;100650.13;4980020;28;20051;-87
2022/10/29 13:32:27;;;;;;;20.02;3.75;;;;;;;15.21;100.00;100659.44;4986973;28;20105;-94